sensor_id;sensor_type;location;lat;lon;timestamp;pressure;altitude;pressure_sealevel;temperature;humidity
5812;BME280;2932;52.400;9.558;2023-05-16T00:00:19;100810.28;;;15.65;67.27
5812;BME280;2932;52.400;9.558;2023-05-16T00:02:45;100807.56;;;15.69;66.80
5812;BME280;2932;52.400;9.558;2023-05-16T00:05:11;100805.56;;;15.43;66.76
5812;BME280;2932;52.400;9.558;2023-05-16T00:07:41;100806.97;;;15.83;66.73
5812;BME280;2932;52.400;9.558;2023-05-16T00:10:08;100816.09;;;15.80;66.77
5812;BME280;2932;52.400;9.558;2023-05-16T00:12:33;100818.56;;;15.58;66.78
5812;BME280;2932;52.400;9.558;2023-05-16T00:15:01;100821.34;;;15.35;68.46
5812;BME280;2932;52.400;9.558;2023-05-16T00:17:26;100823.91;;;14.98;68.99
5812;BME280;2932;52.400;9.558;2023-05-16T00:19:53;100820.44;;;15.05;69.07
5812;BME280;2932;52.400;9.558;2023-05-16T00:22:22;100827.69;;;14.87;70.21
5812;BME280;2932;52.400;9.558;2023-05-16T00:24:48;100831.25;;;14.87;70.45
5812;BME280;2932;52.400;9.558;2023-05-16T00:27:13;100833.34;;;15.62;69.00
5812;BME280;2932;52.400;9.558;2023-05-16T00:29:39;100832.88;;;15.83;68.08
5812;BME280;2932;52.400;9.558;2023-05-16T00:32:04;100827.72;;;15.85;66.85
5812;BME280;2932;52.400;9.558;2023-05-16T00:34:32;100829.63;;;15.55;67.72
5812;BME280;2932;52.400;9.558;2023-05-16T00:36:58;100825.94;;;15.47;67.53
5812;BME280;2932;52.400;9.558;2023-05-16T00:39:23;100827.59;;;15.52;67.73
5812;BME280;2932;52.400;9.558;2023-05-16T00:41:49;100827.66;;;15.55;67.32
5812;BME280;2932;52.400;9.558;2023-05-16T00:44:14;100829.03;;;15.42;67.48
5812;BME280;2932;52.400;9.558;2023-05-16T00:46:40;100825.34;;;15.61;67.45
5812;BME280;2932;52.400;9.558;2023-05-16T00:49:05;100824.66;;;15.18;67.43
5812;BME280;2932;52.400;9.558;2023-05-16T00:51:31;100831.22;;;15.29;67.50
5812;BME280;2932;52.400;9.558;2023-05-16T00:53:57;100828.16;;;15.61;66.76
5812;BME280;2932;52.400;9.558;2023-05-16T00:56:22;100841.09;;;15.99;64.90
5812;BME280;2932;52.400;9.558;2023-05-16T00:58:48;100830.81;;;16.07;65.33
5812;BME280;2932;52.400;9.558;2023-05-16T01:01:14;100829.16;;;16.32;64.34
5812;BME280;2932;52.400;9.558;2023-05-16T01:03:41;100829.97;;;16.32;64.03
5812;BME280;2932;52.400;9.558;2023-05-16T01:06:08;100828.69;;;16.26;64.67
5812;BME280;2932;52.400;9.558;2023-05-16T01:08:33;100825.97;;;16.33;63.77
5812;BME280;2932;52.400;9.558;2023-05-16T01:11:21;100826.94;;;16.48;63.94
5812;BME280;2932;52.400;9.558;2023-05-16T01:13:59;100835.78;;;16.20;64.39
5812;BME280;2932;52.400;9.558;2023-05-16T01:16:42;100832.13;;;16.16;65.54
5812;BME280;2932;52.400;9.558;2023-05-16T01:19:18;100842.66;;;15.96;65.98
5812;BME280;2932;52.400;9.558;2023-05-16T01:21:55;100829.28;;;16.13;66.01
5812;BME280;2932;52.400;9.558;2023-05-16T01:26:58;100837.28;;;15.35;67.80
5812;BME280;2932;52.400;9.558;2023-05-16T01:29:23;100837.94;;;15.51;67.73
5812;BME280;2932;52.400;9.558;2023-05-16T01:31:48;100827.78;;;15.89;66.53
5812;BME280;2932;52.400;9.558;2023-05-16T01:34:14;100824.84;;;16.08;65.65
5812;BME280;2932;52.400;9.558;2023-05-16T01:36:48;100831.06;;;15.94;66.50
5812;BME280;2932;52.400;9.558;2023-05-16T01:39:29;100833.47;;;15.96;66.89
5812;BME280;2932;52.400;9.558;2023-05-16T01:42:03;100824.78;;;16.05;66.05
5812;BME280;2932;52.400;9.558;2023-05-16T01:44:42;100816.19;;;16.17;65.52
5812;BME280;2932;52.400;9.558;2023-05-16T01:47:13;100812.81;;;16.34;64.60
5812;BME280;2932;52.400;9.558;2023-05-16T01:52:15;100825.59;;;16.05;64.84
5812;BME280;2932;52.400;9.558;2023-05-16T01:54:44;100833.53;;;15.73;65.82
5812;BME280;2932;52.400;9.558;2023-05-16T01:57:12;100834.41;;;15.54;66.42
5812;BME280;2932;52.400;9.558;2023-05-16T01:59:38;100830.44;;;15.55;65.73
5812;BME280;2932;52.400;9.558;2023-05-16T02:02:03;100837.28;;;15.58;66.31
5812;BME280;2932;52.400;9.558;2023-05-16T02:04:29;100843.34;;;15.41;66.84
5812;BME280;2932;52.400;9.558;2023-05-16T02:06:55;100844.06;;;15.11;66.72
5812;BME280;2932;52.400;9.558;2023-05-16T02:09:21;100849.75;;;15.18;66.82
5812;BME280;2932;52.400;9.558;2023-05-16T02:11:46;100846.25;;;15.25;66.53
5812;BME280;2932;52.400;9.558;2023-05-16T02:14:11;100850.59;;;15.45;65.72
5812;BME280;2932;52.400;9.558;2023-05-16T02:16:37;100843.03;;;15.23;66.46
5812;BME280;2932;52.400;9.558;2023-05-16T02:19:02;100852.63;;;15.25;65.94
5812;BME280;2932;52.400;9.558;2023-05-16T02:21:30;100854.34;;;14.88;67.39
5812;BME280;2932;52.400;9.558;2023-05-16T02:23:56;100846.72;;;15.04;66.98
5812;BME280;2932;52.400;9.558;2023-05-16T02:26:21;100851.84;;;15.48;66.40
5812;BME280;2932;52.400;9.558;2023-05-16T02:28:46;100844.22;;;15.45;65.90
5812;BME280;2932;52.400;9.558;2023-05-16T02:31:24;100851.41;;;14.58;67.53
5812;BME280;2932;52.400;9.558;2023-05-16T02:33:50;100841.50;;;14.60;67.93
5812;BME280;2932;52.400;9.558;2023-05-16T02:36:15;100858.97;;;14.99;67.83
5812;BME280;2932;52.400;9.558;2023-05-16T02:38:40;100846.75;;;14.85;67.23
5812;BME280;2932;52.400;9.558;2023-05-16T02:41:06;100855.44;;;15.02;67.60
5812;BME280;2932;52.400;9.558;2023-05-16T02:43:31;100847.28;;;14.71;68.06
5812;BME280;2932;52.400;9.558;2023-05-16T02:45:56;100852.78;;;14.29;69.17
5812;BME280;2932;52.400;9.558;2023-05-16T02:48:25;100847.72;;;14.73;68.55
5812;BME280;2932;52.400;9.558;2023-05-16T02:50:51;100862.47;;;14.74;68.71
5812;BME280;2932;52.400;9.558;2023-05-16T02:53:17;100866.94;;;14.59;68.77
5812;BME280;2932;52.400;9.558;2023-05-16T02:55:42;100855.66;;;14.52;69.30
5812;BME280;2932;52.400;9.558;2023-05-16T02:58:07;100866.72;;;14.48;69.17
5812;BME280;2932;52.400;9.558;2023-05-16T03:00:33;100880.09;;;14.23;70.19
5812;BME280;2932;52.400;9.558;2023-05-16T03:02:58;100880.41;;;14.57;69.54
5812;BME280;2932;52.400;9.558;2023-05-16T03:05:24;100884.09;;;14.61;68.63
5812;BME280;2932;52.400;9.558;2023-05-16T03:07:49;100877.25;;;14.39;68.76
5812;BME280;2932;52.400;9.558;2023-05-16T03:10:14;100875.44;;;14.66;69.14
5812;BME280;2932;52.400;9.558;2023-05-16T03:12:40;100880.25;;;14.30;69.69
5812;BME280;2932;52.400;9.558;2023-05-16T03:15:06;100876.31;;;14.51;69.44
5812;BME280;2932;52.400;9.558;2023-05-16T03:17:33;100883.78;;;14.12;69.74
5812;BME280;2932;52.400;9.558;2023-05-16T03:19:58;100887.19;;;13.86;71.28
5812;BME280;2932;52.400;9.558;2023-05-16T03:22:24;100888.69;;;13.99;71.31
5812;BME280;2932;52.400;9.558;2023-05-16T03:27:19;100895.91;;;14.19;71.74
5812;BME280;2932;52.400;9.558;2023-05-16T03:29:44;100892.00;;;14.59;71.11
5812;BME280;2932;52.400;9.558;2023-05-16T03:32:10;100900.69;;;14.96;70.20
5812;BME280;2932;52.400;9.558;2023-05-16T03:34:35;100912.78;;;15.04;70.45
5812;BME280;2932;52.400;9.558;2023-05-16T03:37:01;100910.44;;;15.06;70.09
5812;BME280;2932;52.400;9.558;2023-05-16T03:39:29;100909.59;;;15.47;69.30
5812;BME280;2932;52.400;9.558;2023-05-16T03:41:57;100908.97;;;15.34;68.43
5812;BME280;2932;52.400;9.558;2023-05-16T03:44:22;100911.81;;;15.15;68.41
5812;BME280;2932;52.400;9.558;2023-05-16T03:46:48;100911.44;;;15.40;68.08
5812;BME280;2932;52.400;9.558;2023-05-16T03:49:15;100907.41;;;15.60;67.77
5812;BME280;2932;52.400;9.558;2023-05-16T03:51:40;100914.59;;;15.61;66.56
5812;BME280;2932;52.400;9.558;2023-05-16T03:54:06;100912.81;;;15.49;66.32
5812;BME280;2932;52.400;9.558;2023-05-16T03:56:31;100909.53;;;15.66;65.58
5812;BME280;2932;52.400;9.558;2023-05-16T03:58:56;100905.16;;;15.00;65.83
5812;BME280;2932;52.400;9.558;2023-05-16T04:01:22;100911.31;;;15.10;66.58
5812;BME280;2932;52.400;9.558;2023-05-16T04:03:47;100919.69;;;15.32;65.08
5812;BME280;2932;52.400;9.558;2023-05-16T04:06:13;100913.88;;;15.64;64.37
5812;BME280;2932;52.400;9.558;2023-05-16T04:08:38;100918.06;;;15.77;64.01
5812;BME280;2932;52.400;9.558;2023-05-16T04:11:05;100918.25;;;15.88;63.68
5812;BME280;2932;52.400;9.558;2023-05-16T04:13:30;100928.75;;;15.49;63.96
5812;BME280;2932;52.400;9.558;2023-05-16T04:15:55;100924.78;;;15.50;63.91
5812;BME280;2932;52.400;9.558;2023-05-16T04:18:21;100927.16;;;15.28;64.25
5812;BME280;2932;52.400;9.558;2023-05-16T04:20:46;100930.38;;;15.08;64.73
5812;BME280;2932;52.400;9.558;2023-05-16T04:23:11;100928.19;;;15.20;64.41
5812;BME280;2932;52.400;9.558;2023-05-16T04:25:37;100927.19;;;15.51;63.91
5812;BME280;2932;52.400;9.558;2023-05-16T04:28:02;100928.09;;;15.36;63.94
5812;BME280;2932;52.400;9.558;2023-05-16T04:30:28;100937.38;;;15.21;63.57
5812;BME280;2932;52.400;9.558;2023-05-16T04:32:53;100946.22;;;15.04;64.19
5812;BME280;2932;52.400;9.558;2023-05-16T04:35:19;100944.56;;;15.22;63.42
5812;BME280;2932;52.400;9.558;2023-05-16T04:37:45;100954.31;;;15.31;63.10
5812;BME280;2932;52.400;9.558;2023-05-16T04:40:11;100948.88;;;15.61;62.31
5812;BME280;2932;52.400;9.558;2023-05-16T04:42:37;100948.56;;;15.66;61.47
5812;BME280;2932;52.400;9.558;2023-05-16T04:45:02;100954.47;;;15.61;61.68
5812;BME280;2932;52.400;9.558;2023-05-16T04:47:30;100974.28;;;14.56;63.67
5812;BME280;2932;52.400;9.558;2023-05-16T04:49:56;100976.00;;;14.99;63.05
5812;BME280;2932;52.400;9.558;2023-05-16T04:52:21;100976.03;;;15.22;62.42
5812;BME280;2932;52.400;9.558;2023-05-16T04:54:49;100985.19;;;15.23;61.12
5812;BME280;2932;52.400;9.558;2023-05-16T04:57:15;100981.44;;;14.73;61.73
5812;BME280;2932;52.400;9.558;2023-05-16T04:59:40;100989.63;;;14.66;62.10
5812;BME280;2932;52.400;9.558;2023-05-16T05:02:05;100988.03;;;14.49;62.39
5812;BME280;2932;52.400;9.558;2023-05-16T05:04:31;100997.09;;;14.81;61.81
5812;BME280;2932;52.400;9.558;2023-05-16T05:06:57;101011.38;;;14.80;61.68
5812;BME280;2932;52.400;9.558;2023-05-16T05:09:22;101002.38;;;14.86;60.83
5812;BME280;2932;52.400;9.558;2023-05-16T05:11:47;101020.63;;;14.64;61.58
5812;BME280;2932;52.400;9.558;2023-05-16T05:14:12;101017.84;;;14.84;61.04
5812;BME280;2932;52.400;9.558;2023-05-16T05:16:38;101017.72;;;14.96;60.80
5812;BME280;2932;52.400;9.558;2023-05-16T05:19:03;101020.25;;;15.24;60.24
5812;BME280;2932;52.400;9.558;2023-05-16T05:21:28;101021.16;;;15.09;59.94
5812;BME280;2932;52.400;9.558;2023-05-16T05:23:54;101025.56;;;15.10;60.18
5812;BME280;2932;52.400;9.558;2023-05-16T05:26:20;101026.56;;;15.40;59.45
5812;BME280;2932;52.400;9.558;2023-05-16T05:28:46;101027.44;;;15.25;59.73
5812;BME280;2932;52.400;9.558;2023-05-16T05:31:11;101033.31;;;14.81;59.63
5812;BME280;2932;52.400;9.558;2023-05-16T05:33:37;101033.03;;;15.25;58.89
5812;BME280;2932;52.400;9.558;2023-05-16T05:36:02;101040.38;;;15.14;59.45
5812;BME280;2932;52.400;9.558;2023-05-16T05:38:27;101044.47;;;15.20;59.01
5812;BME280;2932;52.400;9.558;2023-05-16T05:40:53;101048.28;;;15.31;58.76
5812;BME280;2932;52.400;9.558;2023-05-16T05:43:18;101052.31;;;15.53;58.50
5812;BME280;2932;52.400;9.558;2023-05-16T05:45:43;101051.06;;;15.31;58.29
5812;BME280;2932;52.400;9.558;2023-05-16T05:48:09;101061.19;;;15.39;58.62
5812;BME280;2932;52.400;9.558;2023-05-16T05:50:35;101061.56;;;14.99;58.86
5812;BME280;2932;52.400;9.558;2023-05-16T05:53:00;101069.75;;;14.92;59.20
5812;BME280;2932;52.400;9.558;2023-05-16T05:55:26;101074.13;;;15.09;58.93
5812;BME280;2932;52.400;9.558;2023-05-16T05:57:51;101082.47;;;15.28;58.22
5812;BME280;2932;52.400;9.558;2023-05-16T06:00:16;101078.50;;;14.24;60.17
5812;BME280;2932;52.400;9.558;2023-05-16T06:02:42;101074.69;;;14.79;59.57
5812;BME280;2932;52.400;9.558;2023-05-16T06:05:08;101078.94;;;14.92;58.72
5812;BME280;2932;52.400;9.558;2023-05-16T06:07:33;101092.91;;;15.12;58.56
5812;BME280;2932;52.400;9.558;2023-05-16T06:09:58;101081.44;;;15.75;57.82
5812;BME280;2932;52.400;9.558;2023-05-16T06:12:28;101088.06;;;15.47;57.72
5812;BME280;2932;52.400;9.558;2023-05-16T06:14:53;101090.09;;;15.70;57.45
5812;BME280;2932;52.400;9.558;2023-05-16T06:17:19;101093.25;;;15.49;56.85
5812;BME280;2932;52.400;9.558;2023-05-16T06:19:45;101092.53;;;15.71;56.69
5812;BME280;2932;52.400;9.558;2023-05-16T06:22:10;101087.72;;;16.14;55.94
5812;BME280;2932;52.400;9.558;2023-05-16T06:24:35;101094.44;;;16.32;55.73
5812;BME280;2932;52.400;9.558;2023-05-16T06:27:01;101110.59;;;16.46;55.25
5812;BME280;2932;52.400;9.558;2023-05-16T06:29:26;101108.88;;;16.38;54.90
5812;BME280;2932;52.400;9.558;2023-05-16T06:31:51;101111.16;;;16.55;55.46
5812;BME280;2932;52.400;9.558;2023-05-16T06:34:16;101113.94;;;16.55;54.64
5812;BME280;2932;52.400;9.558;2023-05-16T06:36:42;101120.09;;;16.18;54.38
5812;BME280;2932;52.400;9.558;2023-05-16T06:39:08;101119.84;;;16.04;54.00
5812;BME280;2932;52.400;9.558;2023-05-16T06:41:33;101117.84;;;16.05;54.57
5812;BME280;2932;52.400;9.558;2023-05-16T06:43:59;101129.06;;;16.27;54.46
5812;BME280;2932;52.400;9.558;2023-05-16T06:46:24;101122.56;;;16.46;53.69
5812;BME280;2932;52.400;9.558;2023-05-16T06:48:50;101120.97;;;16.68;53.01
5812;BME280;2932;52.400;9.558;2023-05-16T06:51:15;101119.03;;;16.72;53.52
5812;BME280;2932;52.400;9.558;2023-05-16T06:53:41;101121.00;;;16.98;52.66
5812;BME280;2932;52.400;9.558;2023-05-16T06:56:09;101121.72;;;16.19;52.83
5812;BME280;2932;52.400;9.558;2023-05-16T06:58:34;101125.00;;;16.71;52.57
5812;BME280;2932;52.400;9.558;2023-05-16T07:01:00;101127.31;;;16.65;51.64
5812;BME280;2932;52.400;9.558;2023-05-16T07:03:25;101125.13;;;16.78;51.30
5812;BME280;2932;52.400;9.558;2023-05-16T07:05:50;101131.66;;;16.89;51.47
5812;BME280;2932;52.400;9.558;2023-05-16T07:08:17;101125.63;;;16.38;52.26
5812;BME280;2932;52.400;9.558;2023-05-16T07:10:42;101133.13;;;15.88;53.51
5812;BME280;2932;52.400;9.558;2023-05-16T07:13:07;101138.16;;;15.59;53.29
5812;BME280;2932;52.400;9.558;2023-05-16T07:15:33;101140.38;;;15.15;53.83
5812;BME280;2932;52.400;9.558;2023-05-16T07:17:58;101144.09;;;16.00;53.27
5812;BME280;2932;52.400;9.558;2023-05-16T07:20:23;101144.91;;;15.23;53.23
5812;BME280;2932;52.400;9.558;2023-05-16T07:22:49;101145.59;;;15.94;52.79
5812;BME280;2932;52.400;9.558;2023-05-16T07:25:14;101141.00;;;16.51;52.13
5812;BME280;2932;52.400;9.558;2023-05-16T07:27:41;101145.50;;;16.82;51.81
5812;BME280;2932;52.400;9.558;2023-05-16T07:30:12;101142.41;;;17.13;51.61
5812;BME280;2932;52.400;9.558;2023-05-16T07:32:38;101141.81;;;17.30;51.21
5812;BME280;2932;52.400;9.558;2023-05-16T07:35:04;101144.56;;;17.27;51.50
5812;BME280;2932;52.400;9.558;2023-05-16T07:37:29;101143.72;;;17.23;51.67
5812;BME280;2932;52.400;9.558;2023-05-16T07:39:55;101158.38;;;16.41;52.38
5812;BME280;2932;52.400;9.558;2023-05-16T07:42:20;101148.09;;;16.67;52.71
5812;BME280;2932;52.400;9.558;2023-05-16T07:44:46;101149.09;;;16.79;52.82
5812;BME280;2932;52.400;9.558;2023-05-16T07:47:11;101151.19;;;16.62;52.71
5812;BME280;2932;52.400;9.558;2023-05-16T07:49:37;101144.78;;;16.62;52.59
5812;BME280;2932;52.400;9.558;2023-05-16T07:52:02;101144.28;;;16.56;52.46
5812;BME280;2932;52.400;9.558;2023-05-16T07:54:27;101153.75;;;16.97;52.35
5812;BME280;2932;52.400;9.558;2023-05-16T07:56:53;101146.88;;;16.65;51.72
5812;BME280;2932;52.400;9.558;2023-05-16T07:59:18;101149.28;;;16.93;51.89
5812;BME280;2932;52.400;9.558;2023-05-16T08:01:44;101158.88;;;16.23;52.49
5812;BME280;2932;52.400;9.558;2023-05-16T08:04:09;101161.50;;;16.58;52.60
5812;BME280;2932;52.400;9.558;2023-05-16T08:06:34;101157.72;;;16.70;52.45
5812;BME280;2932;52.400;9.558;2023-05-16T08:09:01;101158.88;;;17.22;50.98
5812;BME280;2932;52.400;9.558;2023-05-16T08:11:26;101153.88;;;17.34;50.02
5812;BME280;2932;52.400;9.558;2023-05-16T08:13:52;101165.03;;;17.05;49.61
5812;BME280;2932;52.400;9.558;2023-05-16T08:16:17;101163.31;;;16.96;49.51
5812;BME280;2932;52.400;9.558;2023-05-16T08:18:43;101162.69;;;17.07;49.62
5812;BME280;2932;52.400;9.558;2023-05-16T08:21:08;101158.81;;;17.45;49.47
5812;BME280;2932;52.400;9.558;2023-05-16T08:23:34;101161.44;;;17.94;49.09
5812;BME280;2932;52.400;9.558;2023-05-16T08:26:00;101164.47;;;17.48;49.74
5812;BME280;2932;52.400;9.558;2023-05-16T08:28:25;101165.84;;;17.95;49.61
5812;BME280;2932;52.400;9.558;2023-05-16T08:30:51;101168.72;;;17.69;49.62
5812;BME280;2932;52.400;9.558;2023-05-16T08:33:16;101162.47;;;17.49;49.53
5812;BME280;2932;52.400;9.558;2023-05-16T08:35:45;101170.97;;;17.89;48.93
5812;BME280;2932;52.400;9.558;2023-05-16T08:38:10;101157.06;;;18.37;48.07
5812;BME280;2932;52.400;9.558;2023-05-16T08:40:36;101168.53;;;18.62;46.49
5812;BME280;2932;52.400;9.558;2023-05-16T08:43:01;101146.34;;;18.97;45.99
5812;BME280;2932;52.400;9.558;2023-05-16T08:45:27;101156.00;;;19.00;46.09
5812;BME280;2932;52.400;9.558;2023-05-16T08:47:55;101163.84;;;18.80;45.96
5812;BME280;2932;52.400;9.558;2023-05-16T08:50:23;101147.72;;;19.25;46.14
5812;BME280;2932;52.400;9.558;2023-05-16T08:52:50;101152.38;;;19.76;45.72
5812;BME280;2932;52.400;9.558;2023-05-16T08:55:18;101159.53;;;19.62;44.85
5812;BME280;2932;52.400;9.558;2023-05-16T08:57:44;101154.72;;;19.63;44.56
5812;BME280;2932;52.400;9.558;2023-05-16T09:00:10;101147.66;;;19.97;44.91
5812;BME280;2932;52.400;9.558;2023-05-16T09:02:38;101159.16;;;19.68;44.65
5812;BME280;2932;52.400;9.558;2023-05-16T09:05:03;101148.59;;;19.40;45.12
5812;BME280;2932;52.400;9.558;2023-05-16T09:07:29;101160.38;;;18.09;46.25
5812;BME280;2932;52.400;9.558;2023-05-16T09:09:55;101158.72;;;18.05;46.25
5812;BME280;2932;52.400;9.558;2023-05-16T09:12:20;101147.66;;;18.15;46.62
5812;BME280;2932;52.400;9.558;2023-05-16T09:14:48;101156.00;;;18.52;45.44
5812;BME280;2932;52.400;9.558;2023-05-16T09:17:14;101146.78;;;18.52;46.47
5812;BME280;2932;52.400;9.558;2023-05-16T09:19:41;101153.44;;;18.77;45.61
5812;BME280;2932;52.400;9.558;2023-05-16T09:22:13;101156.69;;;18.86;45.35
5812;BME280;2932;52.400;9.558;2023-05-16T09:24:40;101155.06;;;18.85;45.10
5812;BME280;2932;52.400;9.558;2023-05-16T09:27:14;101149.31;;;19.22;44.22
5812;BME280;2932;52.400;9.558;2023-05-16T09:29:43;101145.63;;;19.91;44.68
5812;BME280;2932;52.400;9.558;2023-05-16T09:32:13;101131.31;;;19.30;43.69
5812;BME280;2932;52.400;9.558;2023-05-16T09:34:43;101139.94;;;18.97;43.70
5812;BME280;2932;52.400;9.558;2023-05-16T09:37:10;101153.94;;;18.46;44.40
5812;BME280;2932;52.400;9.558;2023-05-16T09:39:39;101148.63;;;18.78;45.00
5812;BME280;2932;52.400;9.558;2023-05-16T09:42:10;101142.03;;;19.11;43.25
5812;BME280;2932;52.400;9.558;2023-05-16T09:44:36;101147.53;;;19.65;43.11
5812;BME280;2932;52.400;9.558;2023-05-16T09:47:01;101137.69;;;19.24;42.53
5812;BME280;2932;52.400;9.558;2023-05-16T09:49:27;101142.03;;;19.94;42.58
5812;BME280;2932;52.400;9.558;2023-05-16T09:51:52;101143.63;;;19.91;42.83
5812;BME280;2932;52.400;9.558;2023-05-16T09:54:29;101142.03;;;19.97;43.08
5812;BME280;2932;52.400;9.558;2023-05-16T09:56:55;101152.06;;;20.06;43.08
5812;BME280;2932;52.400;9.558;2023-05-16T09:59:20;101146.94;;;18.66;44.42
5812;BME280;2932;52.400;9.558;2023-05-16T10:01:46;101154.03;;;19.08;44.97
5812;BME280;2932;52.400;9.558;2023-05-16T10:04:13;101151.34;;;17.86;42.83
5812;BME280;2932;52.400;9.558;2023-05-16T10:06:40;101146.88;;;17.81;44.56
5812;BME280;2932;52.400;9.558;2023-05-16T10:09:10;101146.22;;;17.02;46.68
5812;BME280;2932;52.400;9.558;2023-05-16T10:11:40;101141.69;;;18.20;45.87
5812;BME280;2932;52.400;9.558;2023-05-16T10:14:08;101154.72;;;18.46;45.71
5812;BME280;2932;52.400;9.558;2023-05-16T10:16:34;101152.03;;;19.88;43.58
5812;BME280;2932;52.400;9.558;2023-05-16T10:19:01;101121.91;;;19.74;41.40
5812;BME280;2932;52.400;9.558;2023-05-16T10:21:28;101132.25;;;19.59;42.33
5812;BME280;2932;52.400;9.558;2023-05-16T10:23:56;101138.81;;;19.95;42.32
5812;BME280;2932;52.400;9.558;2023-05-16T10:26:23;101129.34;;;19.38;40.97
5812;BME280;2932;52.400;9.558;2023-05-16T10:28:50;101127.31;;;19.35;41.52
5812;BME280;2932;52.400;9.558;2023-05-16T10:31:16;101126.03;;;20.30;41.29
5812;BME280;2932;52.400;9.558;2023-05-16T10:33:41;101122.69;;;21.38;40.79
5812;BME280;2932;52.400;9.558;2023-05-16T10:36:10;101117.59;;;20.30;40.42
5812;BME280;2932;52.400;9.558;2023-05-16T10:38:37;101130.78;;;20.08;40.09
5812;BME280;2932;52.400;9.558;2023-05-16T10:41:03;101117.44;;;19.66;40.83
5812;BME280;2932;52.400;9.558;2023-05-16T10:43:29;101120.31;;;18.97;41.47
5812;BME280;2932;52.400;9.558;2023-05-16T10:45:56;101114.84;;;19.25;41.92
5812;BME280;2932;52.400;9.558;2023-05-16T10:48:29;101112.50;;;19.38;41.25
5812;BME280;2932;52.400;9.558;2023-05-16T10:50:55;101114.41;;;20.46;39.60
5812;BME280;2932;52.400;9.558;2023-05-16T10:56:05;101118.69;;;21.32;38.66
5812;BME280;2932;52.400;9.558;2023-05-16T11:01:22;101125.44;;;19.60;40.63
5812;BME280;2932;52.400;9.558;2023-05-16T11:16:50;101139.53;;;19.71;42.82
5812;BME280;2932;52.400;9.558;2023-05-16T11:19:34;101144.63;;;18.82;45.85
5812;BME280;2932;52.400;9.558;2023-05-16T11:25:03;101145.69;;;20.90;42.10
5812;BME280;2932;52.400;9.558;2023-05-16T11:27:30;101141.06;;;21.71;41.67
5812;BME280;2932;52.400;9.558;2023-05-16T11:30:11;101144.25;;;21.77;40.45
5812;BME280;2932;52.400;9.558;2023-05-16T11:32:38;101134.06;;;20.35;41.81
5812;BME280;2932;52.400;9.558;2023-05-16T11:35:05;101143.63;;;20.02;42.95
5812;BME280;2932;52.400;9.558;2023-05-16T11:37:32;101138.06;;;20.30;42.14
5812;BME280;2932;52.400;9.558;2023-05-16T11:40:01;101136.03;;;21.16;40.77
5812;BME280;2932;52.400;9.558;2023-05-16T11:42:34;101138.31;;;21.57;39.16
5812;BME280;2932;52.400;9.558;2023-05-16T11:45:20;101133.44;;;21.61;39.24
5812;BME280;2932;52.400;9.558;2023-05-16T11:47:49;101139.34;;;21.91;38.67
5812;BME280;2932;52.400;9.558;2023-05-16T11:50:23;101126.00;;;22.06;38.53
5812;BME280;2932;52.400;9.558;2023-05-16T11:52:53;101134.84;;;20.96;39.50
5812;BME280;2932;52.400;9.558;2023-05-16T11:55:21;101142.00;;;20.01;41.51
5812;BME280;2932;52.400;9.558;2023-05-16T11:57:49;101144.88;;;19.14;42.93
5812;BME280;2932;52.400;9.558;2023-05-16T12:00:22;101142.88;;;19.15;43.90
5812;BME280;2932;52.400;9.558;2023-05-16T12:02:52;101143.81;;;19.44;43.63
5812;BME280;2932;52.400;9.558;2023-05-16T12:05:19;101144.84;;;19.11;43.99
5812;BME280;2932;52.400;9.558;2023-05-16T12:07:49;101149.66;;;20.08;44.28
5812;BME280;2932;52.400;9.558;2023-05-16T12:10:15;101138.50;;;20.47;41.70
5812;BME280;2932;52.400;9.558;2023-05-16T12:12:45;101137.59;;;19.86;42.31
5812;BME280;2932;52.400;9.558;2023-05-16T12:15:12;101136.81;;;20.07;40.13
5812;BME280;2932;52.400;9.558;2023-05-16T12:17:39;101136.00;;;20.06;40.90
5812;BME280;2932;52.400;9.558;2023-05-16T12:20:06;101133.25;;;20.88;40.73
5812;BME280;2932;52.400;9.558;2023-05-16T12:22:38;101139.13;;;21.57;39.77
5812;BME280;2932;52.400;9.558;2023-05-16T12:25:26;101128.69;;;21.54;37.72
5812;BME280;2932;52.400;9.558;2023-05-16T12:27:53;101122.31;;;22.65;38.18
5812;BME280;2932;52.400;9.558;2023-05-16T12:30:21;101139.91;;;23.20;37.69
5812;BME280;2932;52.400;9.558;2023-05-16T12:33:02;101145.28;;;23.45;37.49
5812;BME280;2932;52.400;9.558;2023-05-16T12:35:32;101147.66;;;22.72;38.81
5812;BME280;2932;52.400;9.558;2023-05-16T12:37:58;101165.38;;;22.20;39.88
5812;BME280;2932;52.400;9.558;2023-05-16T12:40:27;101162.63;;;22.06;40.18
5812;BME280;2932;52.400;9.558;2023-05-16T12:42:53;101165.03;;;22.04;40.14
5812;BME280;2932;52.400;9.558;2023-05-16T12:45:20;101164.81;;;21.67;40.54
5812;BME280;2932;52.400;9.558;2023-05-16T12:47:46;101167.16;;;21.86;40.62
5812;BME280;2932;52.400;9.558;2023-05-16T12:50:12;101169.16;;;21.89;40.80
5812;BME280;2932;52.400;9.558;2023-05-16T12:52:52;101168.09;;;21.58;41.30
5812;BME280;2932;52.400;9.558;2023-05-16T12:55:21;101161.59;;;21.64;41.94
5812;BME280;2932;52.400;9.558;2023-05-16T12:57:47;101157.75;;;22.10;40.07
5812;BME280;2932;52.400;9.558;2023-05-16T13:00:15;101148.03;;;22.22;39.11
5812;BME280;2932;52.400;9.558;2023-05-16T13:02:40;101165.63;;;21.60;40.28
5812;BME280;2932;52.400;9.558;2023-05-16T13:05:06;101175.56;;;22.59;39.86
5812;BME280;2932;52.400;9.558;2023-05-16T13:07:32;101168.47;;;22.88;39.87
5812;BME280;2932;52.400;9.558;2023-05-16T13:09:58;101165.94;;;23.01;39.36
5812;BME280;2932;52.400;9.558;2023-05-16T13:12:23;101171.25;;;22.40;38.51
5812;BME280;2932;52.400;9.558;2023-05-16T13:14:51;101169.97;;;21.86;39.51
5812;BME280;2932;52.400;9.558;2023-05-16T13:17:17;101175.66;;;21.72;39.39
5812;BME280;2932;52.400;9.558;2023-05-16T13:19:43;101170.13;;;21.50;39.30
5812;BME280;2932;52.400;9.558;2023-05-16T13:22:08;101171.78;;;21.23;39.38
5812;BME280;2932;52.400;9.558;2023-05-16T13:24:33;101166.97;;;21.27;39.54
5812;BME280;2932;52.400;9.558;2023-05-16T13:26:59;101176.25;;;20.88;40.37
5812;BME280;2932;52.400;9.558;2023-05-16T13:29:24;101175.28;;;21.62;41.11
5812;BME280;2932;52.400;9.558;2023-05-16T13:31:49;101183.31;;;21.71;40.65
5812;BME280;2932;52.400;9.558;2023-05-16T13:34:15;101181.78;;;21.52;40.48
5812;BME280;2932;52.400;9.558;2023-05-16T13:36:40;101183.03;;;21.34;41.16